METAR Data
IDs: Format: Raw Decoded Include TAF

Data at: 0112 UTC 06 Dec 2019

KJWN 060055Z AUTO 00000KT 10SM CLR 13/00 A3009 RMK A01
KJWN 060035Z AUTO 00000KT 10SM CLR 13/01 A3009 RMK A01
KJWN 060015Z AUTO 00000KT 10SM FEW120 14/01 A3008 RMK A01
KJWN 052355Z AUTO 00000KT 10SM FEW120 13/01 A3008 RMK A01
KJWN 052335Z AUTO 00000KT 10SM CLR 14/01 A3008 RMK A01
KJWN 052315Z AUTO 00000KT 10SM CLR 14/01 A3008 RMK A01
KJWN 052255Z AUTO 00000KT 10SM CLR 14/00 A3007 RMK A01
KJWN 052230Z AUTO 00000KT 10SM CLR 15/00 A3007 RMK A01
KJWN 052215Z AUTO 17004KT 10SM CLR 15/00 A3007 RMK A01
KJWN 052155Z AUTO 16005KT 10SM CLR 15/00 A3007 RMK A01
KJWN 052135Z AUTO 17008KT 10SM CLR 16/M00 A3007 RMK A01
KJWN 052115Z AUTO 18007KT 10SM CLR 17/M00 A3007 RMK A01
KJWN 052055Z AUTO 17008KT 10SM CLR 17/M01 A3007 RMK A01
KJWN 052035Z AUTO 19004G12KT 10SM CLR 17/M01 A3007 RMK A01
KJWN 052015Z AUTO 19009KT 10SM CLR 17/M00 A3007 RMK A01
KJWN 051955Z AUTO 18006KT 10SM CLR 17/M00 A3007 RMK A01
KJWN 051935Z AUTO 20007KT 10SM CLR 17/M00 A3008 RMK A01
KJWN 051915Z AUTO 23008KT 10SM CLR 16/M00 A3008 RMK A01
KJWN 051855Z AUTO 19008KT 160V220 10SM CLR 16/M01 A3008 RMK A01
KJWN 051835Z AUTO 16003KT 10SM CLR 16/M01 A3009 RMK A01
KJWN 051815Z AUTO 22005KT 10SM CLR 16/M00 A3010 RMK A01
KJWN 051755Z AUTO VRB04KT 10SM CLR 15/M01 A3011 RMK A01
KJWN 051735Z AUTO 19007KT 10SM CLR 15/M01 A3011 RMK A01
KJWN 051715Z AUTO 00000KT 10SM CLR 14/01 A3013 RMK A01
KJWN 051655Z AUTO 13003KT 10SM CLR 13/02 A3013 RMK A01
KJWN 051615Z AUTO VRB03KT 10SM CLR 11/02 A3014 RMK A01
KJWN 051555Z AUTO 00000KT 10SM CLR 10/03 A3015 RMK A01
KJWN 051535Z AUTO 00000KT 10SM CLR 09/02 A3015 RMK A01
KJWN 051515Z AUTO 00000KT 10SM CLR 07/02 A3015 RMK A01
KJWN 051455Z AUTO 00000KT 10SM CLR 06/02 A3014 RMK A01
KJWN 051435Z AUTO 00000KT 10SM CLR 05/02 A3014 RMK A01
KJWN 051415Z AUTO 00000KT 10SM CLR 04/02 A3013 RMK A01
KJWN 051355Z AUTO 00000KT 10SM CLR 03/01 A3012 RMK A01
KJWN 051335Z AUTO 00000KT 10SM CLR 01/M00 A3011 RMK A01
KJWN 051315Z AUTO 00000KT 10SM CLR 01/00 A3011 RMK A01
KJWN 051255Z AUTO 00000KT 10SM CLR 01/M00 A3010 RMK A01
KJWN 051235Z AUTO 00000KT 10SM CLR 01/00 A3009 RMK A01
KJWN 051215Z AUTO 00000KT 10SM CLR 02/00 A3008 RMK A01
KJWN 051155Z AUTO 00000KT 10SM CLR 02/01 A3007 RMK A01
KJWN 051135Z AUTO 00000KT 10SM CLR 01/00 A3007 RMK A01
KJWN 051115Z AUTO 00000KT 10SM CLR 00/M01 A3006 RMK A01
KJWN 051055Z AUTO 00000KT 10SM CLR 02/00 A3005 RMK A01
KJWN 051035Z AUTO 00000KT 10SM CLR 02/01 A3005 RMK A01
KJWN 051015Z AUTO 00000KT 10SM CLR 03/01 A3005 RMK A01
KJWN 050955Z AUTO 00000KT 10SM CLR 02/01 A3005 RMK A01
KJWN 050935Z AUTO 00000KT 10SM CLR 03/01 A3005 RMK A01
KJWN 050915Z AUTO 00000KT 10SM CLR 03/01 A3004 RMK A01
KJWN 050855Z AUTO 00000KT 10SM CLR 03/01 A3004 RMK A01
KJWN 050835Z AUTO 00000KT 10SM CLR 03/01 A3004 RMK A01
KJWN 050815Z AUTO 00000KT 10SM CLR 03/01 A3003 RMK A01
KJWN 050755Z AUTO 00000KT 10SM CLR 04/00 A3003 RMK A01
KJWN 050735Z AUTO 00000KT 10SM CLR 04/M00 A3002 RMK A01
KJWN 050715Z AUTO 00000KT 10SM CLR 06/00 A3002 RMK A01
KJWN 050655Z AUTO 00000KT 10SM CLR 06/00 A3002 RMK A01
KJWN 050635Z AUTO 32003KT 10SM CLR 07/M00 A3002 RMK A01
KJWN 050615Z AUTO 00000KT 10SM CLR 07/M00 A3001 RMK A01
KJWN 050555Z AUTO 00000KT 10SM CLR 07/M00 A3001 RMK A01
KJWN 050535Z AUTO VRB03KT 10SM CLR 07/M00 A3001 RMK A01
KJWN 050515Z AUTO 26004KT 10SM CLR 08/M00 A3001 RMK A01
KJWN 050455Z AUTO 00000KT 10SM CLR 08/M00 A3000 RMK A01
KJWN 050435Z AUTO 28004KT 10SM CLR 07/M00 A3000 RMK A01
KJWN 050415Z AUTO 26004KT 10SM CLR 08/M00 A2999 RMK A01
KJWN 050355Z AUTO 00000KT 10SM CLR 08/M01 A2999 RMK A01
KJWN 050335Z AUTO 00000KT 10SM CLR 08/M01 A2999 RMK A01
KJWN 050315Z AUTO 00000KT 10SM CLR 08/M00 A2998 RMK A01
KJWN 050255Z AUTO 00000KT 10SM CLR 08/M01 A2998 RMK A01
KJWN 050235Z AUTO 00000KT 10SM CLR 08/M00 A2997 RMK A01
KJWN 050215Z AUTO 26004KT 10SM CLR 08/M01 A2996 RMK A01
KJWN 050155Z AUTO VRB03KT 10SM CLR 08/M01 A2996 RMK A01
KJWN 050135Z AUTO 27003KT 10SM CLR 09/M01 A2996 RMK A01
KJWN 050115Z AUTO 25003KT 10SM CLR 09/M02 A2996 RMK A01
KJWN 050055Z AUTO 25004KT 10SM CLR 10/M02 A2995 RMK A01
KJWN 050035Z AUTO 25004KT 10SM CLR 10/M02 A2995 RMK A01
KJWN 050015Z AUTO 25005KT 10SM CLR 11/M02 A2995 RMK A01
KJWN 042355Z AUTO 26005KT 10SM CLR 11/M02 A2994 RMK A01
KJWN 042335Z AUTO 26004KT 10SM CLR 11/M03 A2994 RMK A01
KJWN 042315Z AUTO 27005KT 10SM CLR 11/M03 A2993 RMK A01
KJWN 042255Z AUTO 26005KT 10SM CLR 12/M03 A2992 RMK A01
KJWN 042235Z AUTO 26007KT 10SM CLR 12/M02 A2992 RMK A01
KJWN 042215Z AUTO 27008KT 10SM CLR 13/M02 A2992 RMK A01
KJWN 042155Z AUTO 29008KT 10SM CLR 14/M02 A2991 RMK A01
KJWN 042135Z AUTO 28009KT 10SM CLR 14/M03 A2990 RMK A01
KJWN 042115Z AUTO 30008G13KT 10SM CLR 15/M03 A2990 RMK A01
KJWN 042055Z AUTO 28013KT 10SM CLR 15/M03 A2989 RMK A01
KJWN 042035Z AUTO 26007KT 10SM CLR 15/M03 A2988 RMK A01
KJWN 042015Z AUTO 26008G13KT 10SM CLR 15/M03 A2988 RMK A01
KJWN 041955Z AUTO 28009KT 10SM CLR 15/M03 A2987 RMK A01
KJWN 041935Z AUTO 29007G14KT 10SM CLR 15/M03 A2987 RMK A01
KJWN 041915Z AUTO 27008KT 10SM CLR 15/M03 A2988 RMK A01
KJWN 041855Z AUTO 27008KT 10SM CLR 14/M03 A2988 RMK A01
KJWN 041835Z AUTO 27008KT 10SM CLR 14/M02 A2989 RMK A01
KJWN 041815Z AUTO 26012KT 10SM CLR 13/M02 A2989 RMK A01
KJWN 041755Z AUTO 26008KT 240V300 10SM CLR 13/M02 A2990 RMK A01
KJWN 041735Z AUTO 28010KT 10SM CLR 12/M02 A2990 RMK A01
KJWN 041715Z AUTO 28007G13KT 10SM 12/M01 A2991 RMK A01
KJWN 041655Z AUTO 27009KT 12/M01 A2992 RMK A01 P0002
KJWN 041635Z AUTO 26008G14KT 10SM CLR 10/M00 A2992 RMK A01
KJWN 041615Z AUTO 26007KT 10SM CLR 09/00 A2993 RMK A01
KJWN 041555Z AUTO 25007KT 10SM CLR 09/01 A2992 RMK A01
KJWN 041535Z AUTO 28004KT 10SM CLR 08/01 A2992 RMK A01
KJWN 041515Z AUTO 28006KT 10SM CLR 08/01 A2991 RMK A01
KJWN 041455Z AUTO 26004KT 10SM CLR 07/01 A2990 RMK A01
KJWN 041435Z AUTO 27004KT 10SM CLR 06/01 A2990 RMK A01
KJWN 041415Z AUTO 21003KT 10SM CLR 05/01 A2989 RMK A01
KJWN 041355Z AUTO 19003KT 10SM CLR 04/02 A2989 RMK A01
KJWN 041335Z AUTO 00000KT 10SM CLR 03/01 A2989 RMK A01
KJWN 041315Z AUTO 00000KT 10SM CLR 02/M00 A2988 RMK A01